sensor_id;sensor_type;location;lat;lon;timestamp;P1;durP1;ratioP1;P2;durP2;ratioP2
71566;SDS011;59403;47.456;19.120;2023-03-13T00:01:20;20.15;;;10.52;;
71566;SDS011;59403;47.456;19.120;2023-03-13T00:03:48;20.73;;;11.10;;
71566;SDS011;59403;47.456;19.120;2023-03-13T00:06:16;20.10;;;10.90;;
71566;SDS011;59403;47.456;19.120;2023-03-13T00:08:45;22.10;;;10.45;;
71566;SDS011;59403;47.456;19.120;2023-03-13T00:11:12;23.73;;;10.47;;
71566;SDS011;59403;47.456;19.120;2023-03-13T00:13:43;19.60;;;10.15;;
71566;SDS011;59403;47.456;19.120;2023-03-13T00:16:11;19.87;;;10.27;;
71566;SDS011;59403;47.456;19.120;2023-03-13T00:18:43;16.30;;;9.05;;
71566;SDS011;59403;47.456;19.120;2023-03-13T00:21:10;20.27;;;9.30;;
71566;SDS011;59403;47.456;19.120;2023-03-13T00:23:37;17.60;;;8.97;;
71566;SDS011;59403;47.456;19.120;2023-03-13T00:26:06;17.60;;;8.60;;
71566;SDS011;59403;47.456;19.120;2023-03-13T00:28:35;19.50;;;9.35;;
71566;SDS011;59403;47.456;19.120;2023-03-13T00:31:04;18.95;;;8.65;;
71566;SDS011;59403;47.456;19.120;2023-03-13T00:33:32;17.95;;;9.02;;
71566;SDS011;59403;47.456;19.120;2023-03-13T00:36:03;17.87;;;8.60;;
71566;SDS011;59403;47.456;19.120;2023-03-13T00:38:32;18.83;;;8.60;;
71566;SDS011;59403;47.456;19.120;2023-03-13T00:41:00;17.20;;;8.27;;
71566;SDS011;59403;47.456;19.120;2023-03-13T00:43:29;17.35;;;7.87;;
71566;SDS011;59403;47.456;19.120;2023-03-13T00:45:58;16.35;;;7.85;;
71566;SDS011;59403;47.456;19.120;2023-03-13T00:48:25;14.70;;;6.80;;
71566;SDS011;59403;47.456;19.120;2023-03-13T00:50:52;14.20;;;6.43;;
71566;SDS011;59403;47.456;19.120;2023-03-13T00:53:20;13.70;;;6.65;;
71566;SDS011;59403;47.456;19.120;2023-03-13T00:55:50;11.50;;;6.07;;
71566;SDS011;59403;47.456;19.120;2023-03-13T00:58:18;11.38;;;6.40;;
71566;SDS011;59403;47.456;19.120;2023-03-13T01:04:20;9.82;;;5.15;;
71566;SDS011;59403;47.456;19.120;2023-03-13T01:06:49;11.98;;;5.75;;
71566;SDS011;59403;47.456;19.120;2023-03-13T01:09:17;14.90;;;5.87;;
71566;SDS011;59403;47.456;19.120;2023-03-13T01:11:45;11.07;;;5.95;;
71566;SDS011;59403;47.456;19.120;2023-03-13T01:14:17;11.50;;;5.67;;
71566;SDS011;59403;47.456;19.120;2023-03-13T01:16:45;11.65;;;6.35;;
71566;SDS011;59403;47.456;19.120;2023-03-13T01:19:13;11.55;;;6.10;;
71566;SDS011;59403;47.456;19.120;2023-03-13T01:21:43;11.73;;;6.60;;
71566;SDS011;59403;47.456;19.120;2023-03-13T01:24:11;12.48;;;5.90;;
71566;SDS011;59403;47.456;19.120;2023-03-13T01:26:38;11.73;;;5.87;;
71566;SDS011;59403;47.456;19.120;2023-03-13T01:31:57;11.20;;;6.12;;
71566;SDS011;59403;47.456;19.120;2023-03-13T01:34:27;12.15;;;5.45;;
71566;SDS011;59403;47.456;19.120;2023-03-13T01:36:55;11.85;;;6.35;;
71566;SDS011;59403;47.456;19.120;2023-03-13T01:39:22;11.63;;;6.00;;
71566;SDS011;59403;47.456;19.120;2023-03-13T01:41:49;10.25;;;5.68;;
71566;SDS011;59403;47.456;19.120;2023-03-13T01:44:19;9.98;;;6.25;;
71566;SDS011;59403;47.456;19.120;2023-03-13T01:46:48;13.13;;;6.65;;
71566;SDS011;59403;47.456;19.120;2023-03-13T01:49:15;11.90;;;6.28;;
71566;SDS011;59403;47.456;19.120;2023-03-13T01:51:46;8.93;;;5.43;;
71566;SDS011;59403;47.456;19.120;2023-03-13T01:54:17;11.90;;;5.57;;
71566;SDS011;59403;47.456;19.120;2023-03-13T01:56:48;9.70;;;5.78;;
71566;SDS011;59403;47.456;19.120;2023-03-13T01:59:25;13.07;;;5.90;;
71566;SDS011;59403;47.456;19.120;2023-03-13T02:01:55;10.80;;;5.20;;
71566;SDS011;59403;47.456;19.120;2023-03-13T02:04:29;9.80;;;5.37;;
71566;SDS011;59403;47.456;19.120;2023-03-13T02:07:04;11.38;;;5.32;;
71566;SDS011;59403;47.456;19.120;2023-03-13T02:09:36;11.48;;;5.45;;
71566;SDS011;59403;47.456;19.120;2023-03-13T02:12:08;8.52;;;4.53;;
71566;SDS011;59403;47.456;19.120;2023-03-13T02:14:37;10.75;;;5.18;;
71566;SDS011;59403;47.456;19.120;2023-03-13T02:17:07;10.97;;;5.20;;
71566;SDS011;59403;47.456;19.120;2023-03-13T02:19:34;7.87;;;4.60;;
71566;SDS011;59403;47.456;19.120;2023-03-13T02:22:07;8.45;;;4.53;;
71566;SDS011;59403;47.456;19.120;2023-03-13T02:24:41;8.45;;;4.90;;
71566;SDS011;59403;47.456;19.120;2023-03-13T02:27:17;9.57;;;4.05;;
71566;SDS011;59403;47.456;19.120;2023-03-13T02:29:44;10.00;;;5.50;;
71566;SDS011;59403;47.456;19.120;2023-03-13T02:32:13;8.20;;;4.62;;
71566;SDS011;59403;47.456;19.120;2023-03-13T02:34:41;8.98;;;4.37;;
71566;SDS011;59403;47.456;19.120;2023-03-13T02:37:10;7.87;;;4.18;;
71566;SDS011;59403;47.456;19.120;2023-03-13T02:39:42;8.65;;;4.65;;
71566;SDS011;59403;47.456;19.120;2023-03-13T02:42:11;7.80;;;4.27;;
71566;SDS011;59403;47.456;19.120;2023-03-13T02:44:41;8.40;;;4.50;;
71566;SDS011;59403;47.456;19.120;2023-03-13T02:47:10;8.25;;;4.75;;
71566;SDS011;59403;47.456;19.120;2023-03-13T02:49:37;9.00;;;4.78;;
71566;SDS011;59403;47.456;19.120;2023-03-13T02:52:08;8.35;;;4.20;;
71566;SDS011;59403;47.456;19.120;2023-03-13T02:54:39;8.30;;;4.43;;
71566;SDS011;59403;47.456;19.120;2023-03-13T02:57:09;9.80;;;4.30;;
71566;SDS011;59403;47.456;19.120;2023-03-13T02:59:36;9.60;;;4.40;;
71566;SDS011;59403;47.456;19.120;2023-03-13T03:02:04;8.07;;;4.68;;
71566;SDS011;59403;47.456;19.120;2023-03-13T03:04:31;8.68;;;4.53;;
71566;SDS011;59403;47.456;19.120;2023-03-13T03:06:58;8.97;;;4.70;;
71566;SDS011;59403;47.456;19.120;2023-03-13T03:09:25;10.88;;;4.60;;
71566;SDS011;59403;47.456;19.120;2023-03-13T03:11:52;9.27;;;4.72;;
71566;SDS011;59403;47.456;19.120;2023-03-13T03:14:19;10.82;;;5.00;;
71566;SDS011;59403;47.456;19.120;2023-03-13T03:16:46;10.02;;;5.30;;
71566;SDS011;59403;47.456;19.120;2023-03-13T03:19:14;9.97;;;5.00;;
71566;SDS011;59403;47.456;19.120;2023-03-13T03:21:41;10.60;;;5.37;;
71566;SDS011;59403;47.456;19.120;2023-03-13T03:24:08;10.63;;;5.90;;
71566;SDS011;59403;47.456;19.120;2023-03-13T03:26:36;12.63;;;6.05;;
71566;SDS011;59403;47.456;19.120;2023-03-13T03:29:03;11.73;;;6.28;;
71566;SDS011;59403;47.456;19.120;2023-03-13T03:31:31;11.53;;;6.27;;
71566;SDS011;59403;47.456;19.120;2023-03-13T03:33:59;14.13;;;5.85;;
71566;SDS011;59403;47.456;19.120;2023-03-13T03:36:27;11.30;;;7.00;;
71566;SDS011;59403;47.456;19.120;2023-03-13T03:38:54;12.80;;;5.80;;
71566;SDS011;59403;47.456;19.120;2023-03-13T03:41:21;11.50;;;6.18;;
71566;SDS011;59403;47.456;19.120;2023-03-13T03:43:48;12.93;;;6.30;;
71566;SDS011;59403;47.456;19.120;2023-03-13T03:46:15;11.40;;;5.97;;
71566;SDS011;59403;47.456;19.120;2023-03-13T03:48:42;10.10;;;6.20;;
71566;SDS011;59403;47.456;19.120;2023-03-13T03:51:10;11.95;;;6.18;;
71566;SDS011;59403;47.456;19.120;2023-03-13T03:53:38;11.18;;;6.10;;
71566;SDS011;59403;47.456;19.120;2023-03-13T03:56:05;18.57;;;6.80;;
71566;SDS011;59403;47.456;19.120;2023-03-13T03:58:33;11.38;;;6.22;;
71566;SDS011;59403;47.456;19.120;2023-03-13T04:00:59;13.55;;;6.40;;
71566;SDS011;59403;47.456;19.120;2023-03-13T04:03:26;11.57;;;6.30;;
71566;SDS011;59403;47.456;19.120;2023-03-13T04:05:53;12.95;;;6.97;;
71566;SDS011;59403;47.456;19.120;2023-03-13T04:08:20;11.50;;;6.13;;
71566;SDS011;59403;47.456;19.120;2023-03-13T04:10:49;13.00;;;5.80;;
71566;SDS011;59403;47.456;19.120;2023-03-13T04:13:16;12.02;;;6.50;;
71566;SDS011;59403;47.456;19.120;2023-03-13T04:15:43;10.40;;;6.22;;
71566;SDS011;59403;47.456;19.120;2023-03-13T04:18:10;13.52;;;6.93;;
71566;SDS011;59403;47.456;19.120;2023-03-13T04:20:37;14.73;;;7.13;;
71566;SDS011;59403;47.456;19.120;2023-03-13T04:23:04;14.75;;;7.12;;
71566;SDS011;59403;47.456;19.120;2023-03-13T04:28:30;14.05;;;7.47;;
71566;SDS011;59403;47.456;19.120;2023-03-13T04:30:57;12.37;;;6.40;;
71566;SDS011;59403;47.456;19.120;2023-03-13T04:33:25;14.97;;;6.77;;
71566;SDS011;59403;47.456;19.120;2023-03-13T04:35:52;13.02;;;6.90;;
71566;SDS011;59403;47.456;19.120;2023-03-13T04:38:19;12.43;;;6.85;;
71566;SDS011;59403;47.456;19.120;2023-03-13T04:40:46;14.07;;;6.87;;
71566;SDS011;59403;47.456;19.120;2023-03-13T04:43:15;13.60;;;7.07;;
71566;SDS011;59403;47.456;19.120;2023-03-13T04:45:41;12.13;;;7.40;;
71566;SDS011;59403;47.456;19.120;2023-03-13T04:48:08;12.57;;;6.80;;
71566;SDS011;59403;47.456;19.120;2023-03-13T04:50:35;10.80;;;6.53;;
71566;SDS011;59403;47.456;19.120;2023-03-13T04:53:03;12.10;;;6.93;;
71566;SDS011;59403;47.456;19.120;2023-03-13T04:55:30;11.07;;;6.47;;
71566;SDS011;59403;47.456;19.120;2023-03-13T04:57:57;13.33;;;6.87;;
71566;SDS011;59403;47.456;19.120;2023-03-13T05:00:25;11.82;;;6.60;;
71566;SDS011;59403;47.456;19.120;2023-03-13T05:02:52;10.98;;;6.30;;
71566;SDS011;59403;47.456;19.120;2023-03-13T05:05:19;11.40;;;6.53;;
71566;SDS011;59403;47.456;19.120;2023-03-13T05:07:46;10.32;;;5.93;;
71566;SDS011;59403;47.456;19.120;2023-03-13T05:10:13;10.90;;;5.17;;
71566;SDS011;59403;47.456;19.120;2023-03-13T05:12:40;10.35;;;5.50;;
71566;SDS011;59403;47.456;19.120;2023-03-13T05:15:07;14.63;;;6.82;;
71566;SDS011;59403;47.456;19.120;2023-03-13T05:17:36;12.48;;;6.00;;
71566;SDS011;59403;47.456;19.120;2023-03-13T05:20:03;13.25;;;7.22;;
71566;SDS011;59403;47.456;19.120;2023-03-13T05:22:32;11.20;;;6.30;;
71566;SDS011;59403;47.456;19.120;2023-03-13T05:24:59;13.13;;;6.75;;
71566;SDS011;59403;47.456;19.120;2023-03-13T05:27:26;13.85;;;7.35;;
71566;SDS011;59403;47.456;19.120;2023-03-13T05:29:53;12.95;;;6.97;;
71566;SDS011;59403;47.456;19.120;2023-03-13T05:32:20;12.50;;;7.35;;
71566;SDS011;59403;47.456;19.120;2023-03-13T05:34:48;13.37;;;7.07;;
71566;SDS011;59403;47.456;19.120;2023-03-13T05:37:16;13.20;;;6.85;;
71566;SDS011;59403;47.456;19.120;2023-03-13T05:39:43;13.40;;;7.62;;
71566;SDS011;59403;47.456;19.120;2023-03-13T05:42:09;13.23;;;7.20;;
71566;SDS011;59403;47.456;19.120;2023-03-13T05:44:36;14.15;;;6.70;;
71566;SDS011;59403;47.456;19.120;2023-03-13T05:47:03;11.57;;;6.63;;
71566;SDS011;59403;47.456;19.120;2023-03-13T05:49:30;13.30;;;7.30;;
71566;SDS011;59403;47.456;19.120;2023-03-13T05:51:59;12.48;;;7.10;;
71566;SDS011;59403;47.456;19.120;2023-03-13T05:54:26;11.98;;;6.18;;
71566;SDS011;59403;47.456;19.120;2023-03-13T05:56:53;15.75;;;7.35;;
71566;SDS011;59403;47.456;19.120;2023-03-13T05:59:20;13.13;;;6.93;;
71566;SDS011;59403;47.456;19.120;2023-03-13T06:01:47;11.63;;;6.70;;
71566;SDS011;59403;47.456;19.120;2023-03-13T06:04:14;13.50;;;6.57;;
71566;SDS011;59403;47.456;19.120;2023-03-13T06:06:41;16.45;;;8.07;;
71566;SDS011;59403;47.456;19.120;2023-03-13T06:09:09;13.57;;;7.45;;
71566;SDS011;59403;47.456;19.120;2023-03-13T06:11:36;13.67;;;6.70;;
71566;SDS011;59403;47.456;19.120;2023-03-13T06:14:03;13.45;;;6.90;;
71566;SDS011;59403;47.456;19.120;2023-03-13T06:16:30;13.48;;;6.95;;
71566;SDS011;59403;47.456;19.120;2023-03-13T06:18:57;15.43;;;6.87;;
71566;SDS011;59403;47.456;19.120;2023-03-13T06:21:24;13.85;;;6.37;;
71566;SDS011;59403;47.456;19.120;2023-03-13T06:23:51;13.27;;;6.70;;
71566;SDS011;59403;47.456;19.120;2023-03-13T06:26:21;13.60;;;6.68;;
71566;SDS011;59403;47.456;19.120;2023-03-13T06:28:48;12.82;;;7.07;;
71566;SDS011;59403;47.456;19.120;2023-03-13T06:31:15;15.05;;;6.97;;
71566;SDS011;59403;47.456;19.120;2023-03-13T06:33:43;15.15;;;7.47;;
71566;SDS011;59403;47.456;19.120;2023-03-13T06:36:10;13.73;;;6.80;;
71566;SDS011;59403;47.456;19.120;2023-03-13T06:38:37;11.80;;;6.55;;
71566;SDS011;59403;47.456;19.120;2023-03-13T06:41:04;13.10;;;6.97;;
71566;SDS011;59403;47.456;19.120;2023-03-13T06:43:34;13.00;;;6.68;;
71566;SDS011;59403;47.456;19.120;2023-03-13T06:46:03;12.07;;;6.00;;
71566;SDS011;59403;47.456;19.120;2023-03-13T06:48:30;11.90;;;6.10;;
71566;SDS011;59403;47.456;19.120;2023-03-13T06:50:57;13.75;;;7.05;;
71566;SDS011;59403;47.456;19.120;2023-03-13T06:53:24;14.63;;;7.05;;
71566;SDS011;59403;47.456;19.120;2023-03-13T06:55:51;11.02;;;6.32;;
71566;SDS011;59403;47.456;19.120;2023-03-13T06:58:18;16.35;;;7.00;;
71566;SDS011;59403;47.456;19.120;2023-03-13T07:00:46;13.27;;;6.37;;
71566;SDS011;59403;47.456;19.120;2023-03-13T07:03:14;14.43;;;6.32;;
71566;SDS011;59403;47.456;19.120;2023-03-13T07:05:40;13.73;;;6.45;;
71566;SDS011;59403;47.456;19.120;2023-03-13T07:08:07;11.57;;;5.80;;
71566;SDS011;59403;47.456;19.120;2023-03-13T07:10:34;12.65;;;5.68;;
71566;SDS011;59403;47.456;19.120;2023-03-13T07:13:01;17.77;;;5.83;;
71566;SDS011;59403;47.456;19.120;2023-03-13T07:15:28;10.63;;;5.55;;
71566;SDS011;59403;47.456;19.120;2023-03-13T07:17:56;11.60;;;6.12;;
71566;SDS011;59403;47.456;19.120;2023-03-13T07:20:24;12.73;;;5.95;;
71566;SDS011;59403;47.456;19.120;2023-03-13T07:22:51;9.85;;;5.40;;
71566;SDS011;59403;47.456;19.120;2023-03-13T07:25:18;18.57;;;6.47;;
71566;SDS011;59403;47.456;19.120;2023-03-13T07:27:45;12.18;;;6.22;;
71566;SDS011;59403;47.456;19.120;2023-03-13T07:30:17;10.15;;;5.22;;
71566;SDS011;59403;47.456;19.120;2023-03-13T07:32:44;12.43;;;6.15;;
71566;SDS011;59403;47.456;19.120;2023-03-13T07:35:12;12.88;;;5.78;;
71566;SDS011;59403;47.456;19.120;2023-03-13T07:37:39;11.93;;;6.07;;
71566;SDS011;59403;47.456;19.120;2023-03-13T07:40:07;12.93;;;5.82;;
71566;SDS011;59403;47.456;19.120;2023-03-13T07:42:34;11.65;;;6.18;;
71566;SDS011;59403;47.456;19.120;2023-03-13T07:45:01;11.35;;;5.72;;
71566;SDS011;59403;47.456;19.120;2023-03-13T07:47:29;13.40;;;6.00;;
71566;SDS011;59403;47.456;19.120;2023-03-13T07:49:56;11.50;;;6.43;;
71566;SDS011;59403;47.456;19.120;2023-03-13T07:52:24;14.82;;;6.30;;
71566;SDS011;59403;47.456;19.120;2023-03-13T07:54:52;13.52;;;7.57;;
71566;SDS011;59403;47.456;19.120;2023-03-13T07:57:19;12.73;;;7.03;;
71566;SDS011;59403;47.456;19.120;2023-03-13T07:59:46;15.75;;;6.80;;
71566;SDS011;59403;47.456;19.120;2023-03-13T08:02:13;14.73;;;7.07;;
71566;SDS011;59403;47.456;19.120;2023-03-13T08:04:41;15.82;;;7.18;;
71566;SDS011;59403;47.456;19.120;2023-03-13T08:07:07;15.10;;;7.60;;
71566;SDS011;59403;47.456;19.120;2023-03-13T08:09:36;14.38;;;7.12;;
71566;SDS011;59403;47.456;19.120;2023-03-13T08:12:03;17.92;;;6.78;;
71566;SDS011;59403;47.456;19.120;2023-03-13T08:14:30;15.23;;;6.87;;
71566;SDS011;59403;47.456;19.120;2023-03-13T08:16:57;10.43;;;6.53;;
71566;SDS011;59403;47.456;19.120;2023-03-13T08:19:24;12.57;;;6.87;;
71566;SDS011;59403;47.456;19.120;2023-03-13T08:21:51;12.52;;;6.10;;
71566;SDS011;59403;47.456;19.120;2023-03-13T08:24:18;12.80;;;6.37;;
71566;SDS011;59403;47.456;19.120;2023-03-13T08:26:47;17.63;;;6.13;;
71566;SDS011;59403;47.456;19.120;2023-03-13T08:29:14;11.10;;;6.53;;
71566;SDS011;59403;47.456;19.120;2023-03-13T08:31:42;12.60;;;6.55;;
71566;SDS011;59403;47.456;19.120;2023-03-13T08:34:10;13.25;;;6.32;;
71566;SDS011;59403;47.456;19.120;2023-03-13T08:36:37;12.05;;;6.85;;
71566;SDS011;59403;47.456;19.120;2023-03-13T08:39:04;11.03;;;6.40;;
71566;SDS011;59403;47.456;19.120;2023-03-13T08:41:33;13.75;;;6.55;;
71566;SDS011;59403;47.456;19.120;2023-03-13T08:44:03;13.93;;;7.47;;
71566;SDS011;59403;47.456;19.120;2023-03-13T08:46:30;12.05;;;6.30;;
71566;SDS011;59403;47.456;19.120;2023-03-13T08:48:59;10.13;;;5.80;;
71566;SDS011;59403;47.456;19.120;2023-03-13T08:51:27;11.70;;;5.97;;
71566;SDS011;59403;47.456;19.120;2023-03-13T08:53:54;10.68;;;5.43;;
71566;SDS011;59403;47.456;19.120;2023-03-13T08:56:22;11.57;;;6.53;;
71566;SDS011;59403;47.456;19.120;2023-03-13T08:58:50;11.68;;;6.20;;
71566;SDS011;59403;47.456;19.120;2023-03-13T09:01:20;8.88;;;6.03;;
71566;SDS011;59403;47.456;19.120;2023-03-13T09:03:49;12.23;;;6.10;;
71566;SDS011;59403;47.456;19.120;2023-03-13T09:06:16;10.23;;;5.93;;
71566;SDS011;59403;47.456;19.120;2023-03-13T09:08:44;10.00;;;5.82;;
71566;SDS011;59403;47.456;19.120;2023-03-13T09:11:11;10.80;;;6.60;;
71566;SDS011;59403;47.456;19.120;2023-03-13T09:13:40;11.20;;;5.62;;
71566;SDS011;59403;47.456;19.120;2023-03-13T09:16:08;10.70;;;5.33;;
71566;SDS011;59403;47.456;19.120;2023-03-13T09:18:38;10.00;;;6.37;;
71566;SDS011;59403;47.456;19.120;2023-03-13T09:21:07;12.18;;;6.00;;
71566;SDS011;59403;47.456;19.120;2023-03-13T09:23:37;11.82;;;5.32;;
71566;SDS011;59403;47.456;19.120;2023-03-13T09:26:04;10.52;;;5.03;;
71566;SDS011;59403;47.456;19.120;2023-03-13T09:28:32;13.67;;;5.40;;
71566;SDS011;59403;47.456;19.120;2023-03-13T09:31:04;7.95;;;4.87;;
71566;SDS011;59403;47.456;19.120;2023-03-13T09:33:32;12.55;;;5.53;;
71566;SDS011;59403;47.456;19.120;2023-03-13T09:36:01;9.35;;;5.75;;
71566;SDS011;59403;47.456;19.120;2023-03-13T09:38:27;10.88;;;5.60;;
71566;SDS011;59403;47.456;19.120;2023-03-13T09:40:54;9.80;;;5.60;;
71566;SDS011;59403;47.456;19.120;2023-03-13T09:43:31;11.95;;;5.72;;
71566;SDS011;59403;47.456;19.120;2023-03-13T09:46:07;9.77;;;5.40;;
71566;SDS011;59403;47.456;19.120;2023-03-13T09:48:41;10.63;;;5.15;;
71566;SDS011;59403;47.456;19.120;2023-03-13T09:51:14;10.20;;;5.37;;
71566;SDS011;59403;47.456;19.120;2023-03-13T09:53:45;9.60;;;5.00;;
71566;SDS011;59403;47.456;19.120;2023-03-13T09:56:18;10.13;;;5.28;;
71566;SDS011;59403;47.456;19.120;2023-03-13T09:58:50;9.32;;;5.00;;
71566;SDS011;59403;47.456;19.120;2023-03-13T10:01:22;9.35;;;5.05;;
71566;SDS011;59403;47.456;19.120;2023-03-13T10:03:55;10.18;;;5.43;;
71566;SDS011;59403;47.456;19.120;2023-03-13T10:06:34;10.33;;;5.03;;
71566;SDS011;59403;47.456;19.120;2023-03-13T10:09:10;14.85;;;5.62;;
71566;SDS011;59403;47.456;19.120;2023-03-13T10:11:46;8.68;;;4.97;;
71566;SDS011;59403;47.456;19.120;2023-03-13T10:14:26;8.70;;;4.97;;
71566;SDS011;59403;47.456;19.120;2023-03-13T10:16:58;8.02;;;5.22;;
71566;SDS011;59403;47.456;19.120;2023-03-13T10:19:31;9.00;;;5.30;;
71566;SDS011;59403;47.456;19.120;2023-03-13T10:22:07;7.93;;;4.72;;
71566;SDS011;59403;47.456;19.120;2023-03-13T10:24:40;9.30;;;5.50;;
71566;SDS011;59403;47.456;19.120;2023-03-13T10:27:13;11.95;;;5.85;;
71566;SDS011;59403;47.456;19.120;2023-03-13T10:29:40;9.68;;;5.05;;
71566;SDS011;59403;47.456;19.120;2023-03-13T10:32:09;11.13;;;6.00;;
71566;SDS011;59403;47.456;19.120;2023-03-13T10:34:45;10.20;;;4.93;;
71566;SDS011;59403;47.456;19.120;2023-03-13T10:37:19;11.95;;;5.53;;
71566;SDS011;59403;47.456;19.120;2023-03-13T10:39:48;10.18;;;5.30;;
71566;SDS011;59403;47.456;19.120;2023-03-13T10:42:20;10.57;;;4.90;;
71566;SDS011;59403;47.456;19.120;2023-03-13T10:44:55;10.43;;;5.30;;
71566;SDS011;59403;47.456;19.120;2023-03-13T10:47:24;9.77;;;5.70;;
71566;SDS011;59403;47.456;19.120;2023-03-13T10:49:54;9.95;;;5.30;;
71566;SDS011;59403;47.456;19.120;2023-03-13T10:52:32;9.80;;;5.35;;
71566;SDS011;59403;47.456;19.120;2023-03-13T10:55:01;11.02;;;5.82;;
71566;SDS011;59403;47.456;19.120;2023-03-13T10:57:30;9.37;;;5.17;;
71566;SDS011;59403;47.456;19.120;2023-03-13T11:00:27;10.70;;;5.60;;
71566;SDS011;59403;47.456;19.120;2023-03-13T11:02:54;10.23;;;5.90;;
71566;SDS011;59403;47.456;19.120;2023-03-13T11:08:17;10.48;;;5.55;;
71566;SDS011;59403;47.456;19.120;2023-03-13T11:10:53;9.43;;;4.97;;
71566;SDS011;59403;47.456;19.120;2023-03-13T11:13:28;10.70;;;5.40;;
71566;SDS011;59403;47.456;19.120;2023-03-13T11:15:59;11.25;;;5.97;;
71566;SDS011;59403;47.456;19.120;2023-03-13T11:18:36;10.13;;;5.10;;
71566;SDS011;59403;47.456;19.120;2023-03-13T11:21:07;9.13;;;4.80;;
71566;SDS011;59403;47.456;19.120;2023-03-13T11:23:46;9.47;;;4.87;;
71566;SDS011;59403;47.456;19.120;2023-03-13T11:26:21;9.30;;;5.10;;
71566;SDS011;59403;47.456;19.120;2023-03-13T11:28:57;10.68;;;5.05;;
71566;SDS011;59403;47.456;19.120;2023-03-13T11:31:30;11.35;;;4.60;;
71566;SDS011;59403;47.456;19.120;2023-03-13T11:34:01;11.48;;;5.32;;
71566;SDS011;59403;47.456;19.120;2023-03-13T11:36:32;13.70;;;5.83;;
71566;SDS011;59403;47.456;19.120;2023-03-13T11:39:06;8.95;;;4.95;;
71566;SDS011;59403;47.456;19.120;2023-03-13T11:41:57;11.98;;;4.55;;
71566;SDS011;59403;47.456;19.120;2023-03-13T11:44:28;8.68;;;4.82;;
71566;SDS011;59403;47.456;19.120;2023-03-13T11:50:02;9.47;;;5.10;;
71566;SDS011;59403;47.456;19.120;2023-03-13T11:52:53;11.07;;;4.82;;
71566;SDS011;59403;47.456;19.120;2023-03-13T11:55:35;11.98;;;4.95;;
71566;SDS011;59403;47.456;19.120;2023-03-13T11:58:18;10.07;;;5.10;;
71566;SDS011;59403;47.456;19.120;2023-03-13T12:00:57;9.70;;;5.03;;
71566;SDS011;59403;47.456;19.120;2023-03-13T12:03:29;8.23;;;4.97;;
71566;SDS011;59403;47.456;19.120;2023-03-13T12:06:01;9.85;;;5.53;;
71566;SDS011;59403;47.456;19.120;2023-03-13T12:08:30;9.80;;;4.90;;
71566;SDS011;59403;47.456;19.120;2023-03-13T12:11:05;7.72;;;4.80;;
71566;SDS011;59403;47.456;19.120;2023-03-13T12:13:39;8.15;;;4.75;;
71566;SDS011;59403;47.456;19.120;2023-03-13T12:16:10;12.73;;;4.87;;
71566;SDS011;59403;47.456;19.120;2023-03-13T12:18:42;10.23;;;4.80;;
71566;SDS011;59403;47.456;19.120;2023-03-13T12:21:13;12.20;;;5.10;;
71566;SDS011;59403;47.456;19.120;2023-03-13T12:23:46;9.07;;;4.82;;
71566;SDS011;59403;47.456;19.120;2023-03-13T12:26:20;9.73;;;4.70;;
71566;SDS011;59403;47.456;19.120;2023-03-13T12:29:00;6.57;;;3.87;;
71566;SDS011;59403;47.456;19.120;2023-03-13T12:31:33;8.35;;;4.00;;
71566;SDS011;59403;47.456;19.120;2023-03-13T12:34:06;8.82;;;4.75;;
71566;SDS011;59403;47.456;19.120;2023-03-13T12:36:40;11.85;;;4.90;;
71566;SDS011;59403;47.456;19.120;2023-03-13T12:39:19;9.80;;;4.80;;
71566;SDS011;59403;47.456;19.120;2023-03-13T12:42:12;11.97;;;4.47;;
71566;SDS011;59403;47.456;19.120;2023-03-13T12:44:47;9.55;;;4.70;;
71566;SDS011;59403;47.456;19.120;2023-03-13T12:47:15;8.95;;;4.85;;
71566;SDS011;59403;47.456;19.120;2023-03-13T12:49:56;11.77;;;4.70;;
71566;SDS011;59403;47.456;19.120;2023-03-13T12:52:55;9.25;;;4.75;;
71566;SDS011;59403;47.456;19.120;2023-03-13T12:58:48;8.80;;;4.40;;
71566;SDS011;59403;47.456;19.120;2023-03-13T13:01:25;9.75;;;4.47;;
71566;SDS011;59403;47.456;19.120;2023-03-13T13:03:57;8.20;;;4.40;;
71566;SDS011;59403;47.456;19.120;2023-03-13T13:06:27;7.15;;;4.00;;
71566;SDS011;59403;47.456;19.120;2023-03-13T13:09:20;7.87;;;4.40;;
71566;SDS011;59403;47.456;19.120;2023-03-13T13:11:50;12.10;;;4.32;;
71566;SDS011;59403;47.456;19.120;2023-03-13T13:17:42;10.82;;;4.80;;
71566;SDS011;59403;47.456;19.120;2023-03-13T13:20:43;7.07;;;3.87;;
71566;SDS011;59403;47.456;19.120;2023-03-13T13:32:27;7.18;;;3.08;;
71566;SDS011;59403;47.456;19.120;2023-03-13T13:35:17;5.78;;;2.90;;
71566;SDS011;59403;47.456;19.120;2023-03-13T13:37:46;9.80;;;2.67;;
71566;SDS011;59403;47.456;19.120;2023-03-13T13:40:18;6.47;;;2.60;;
71566;SDS011;59403;47.456;19.120;2023-03-13T13:42:49;7.87;;;2.85;;
71566;SDS011;59403;47.456;19.120;2023-03-13T13:45:19;7.82;;;2.37;;
71566;SDS011;59403;47.456;19.120;2023-03-13T13:47:50;5.35;;;2.60;;
71566;SDS011;59403;47.456;19.120;2023-03-13T13:50:39;5.90;;;2.20;;
71566;SDS011;59403;47.456;19.120;2023-03-13T13:53:47;7.57;;;2.72;;
71566;SDS011;59403;47.456;19.120;2023-03-13T13:59:27;3.67;;;2.25;;
71566;SDS011;59403;47.456;19.120;2023-03-13T14:02:21;6.62;;;2.35;;
71566;SDS011;59403;47.456;19.120;2023-03-13T14:04:51;6.50;;;1.60;;
71566;SDS011;59403;47.456;19.120;2023-03-13T14:07:24;7.35;;;1.50;;
71566;SDS011;59403;47.456;19.120;2023-03-13T14:09:59;4.03;;;1.50;;
71566;SDS011;59403;47.456;19.120;2023-03-13T14:12:32;8.23;;;2.10;;
71566;SDS011;59403;47.456;19.120;2023-03-13T14:17:51;4.87;;;1.80;;
71566;SDS011;59403;47.456;19.120;2023-03-13T14:20:21;4.53;;;1.50;;
71566;SDS011;59403;47.456;19.120;2023-03-13T14:22:53;4.93;;;1.55;;
71566;SDS011;59403;47.456;19.120;2023-03-13T14:25:23;6.97;;;1.30;;
71566;SDS011;59403;47.456;19.120;2023-03-13T14:27:51;5.12;;;1.60;;
71566;SDS011;59403;47.456;19.120;2023-03-13T14:30:20;5.77;;;1.70;;
71566;SDS011;59403;47.456;19.120;2023-03-13T14:32:49;6.55;;;2.08;;
71566;SDS011;59403;47.456;19.120;2023-03-13T14:35:18;4.80;;;2.03;;
71566;SDS011;59403;47.456;19.120;2023-03-13T14:37:47;6.43;;;2.00;;
71566;SDS011;59403;47.456;19.120;2023-03-13T14:40:27;5.07;;;2.08;;
71566;SDS011;59403;47.456;19.120;2023-03-13T14:42:56;5.03;;;2.03;;
71566;SDS011;59403;47.456;19.120;2023-03-13T14:45:25;6.37;;;1.90;;
71566;SDS011;59403;47.456;19.120;2023-03-13T14:47:57;3.83;;;2.03;;
71566;SDS011;59403;47.456;19.120;2023-03-13T14:50:27;6.47;;;1.90;;
71566;SDS011;59403;47.456;19.120;2023-03-13T14:52:55;5.12;;;2.15;;
71566;SDS011;59403;47.456;19.120;2023-03-13T14:55:30;4.83;;;1.77;;
71566;SDS011;59403;47.456;19.120;2023-03-13T14:57:59;5.47;;;1.67;;
71566;SDS011;59403;47.456;19.120;2023-03-13T15:00:29;3.60;;;1.42;;
71566;SDS011;59403;47.456;19.120;2023-03-13T15:03:11;7.85;;;1.83;;
71566;SDS011;59403;47.456;19.120;2023-03-13T15:05:46;4.15;;;1.52;;
71566;SDS011;59403;47.456;19.120;2023-03-13T15:08:15;3.77;;;1.40;;
71566;SDS011;59403;47.456;19.120;2023-03-13T15:10:45;3.72;;;1.52;;
71566;SDS011;59403;47.456;19.120;2023-03-13T15:13:14;3.12;;;1.40;;
71566;SDS011;59403;47.456;19.120;2023-03-13T15:15:45;4.45;;;1.48;;
71566;SDS011;59403;47.456;19.120;2023-03-13T15:18:17;5.15;;;1.70;;
71566;SDS011;59403;47.456;19.120;2023-03-13T15:20:48;3.53;;;1.47;;